sensor_id;sensor_type;location;lat;lon;timestamp;P1;durP1;ratioP1;P2;durP2;ratioP2
70946;SDS011;58605;48.700;8.760;2023-02-11T00:02:05;49.77;;;30.47;;
70946;SDS011;58605;48.700;8.760;2023-02-11T00:04:33;50.93;;;32.17;;
70946;SDS011;58605;48.700;8.760;2023-02-11T00:06:59;52.03;;;32.07;;
70946;SDS011;58605;48.700;8.760;2023-02-11T00:09:26;50.83;;;31.30;;
70946;SDS011;58605;48.700;8.760;2023-02-11T00:11:52;47.13;;;29.27;;
70946;SDS011;58605;48.700;8.760;2023-02-11T00:14:18;45.33;;;28.37;;
70946;SDS011;58605;48.700;8.760;2023-02-11T00:16:44;50.23;;;29.47;;
70946;SDS011;58605;48.700;8.760;2023-02-11T00:19:10;48.17;;;29.60;;
70946;SDS011;58605;48.700;8.760;2023-02-11T00:21:38;43.83;;;26.80;;
70946;SDS011;58605;48.700;8.760;2023-02-11T00:24:05;41.00;;;25.20;;
70946;SDS011;58605;48.700;8.760;2023-02-11T00:26:32;44.10;;;25.43;;
70946;SDS011;58605;48.700;8.760;2023-02-11T00:28:59;45.93;;;27.33;;
70946;SDS011;58605;48.700;8.760;2023-02-11T00:31:26;39.83;;;25.90;;
70946;SDS011;58605;48.700;8.760;2023-02-11T00:33:53;35.73;;;24.77;;
70946;SDS011;58605;48.700;8.760;2023-02-11T00:36:20;45.47;;;27.07;;
70946;SDS011;58605;48.700;8.760;2023-02-11T00:38:49;48.43;;;29.27;;
70946;SDS011;58605;48.700;8.760;2023-02-11T00:41:16;50.17;;;29.53;;
70946;SDS011;58605;48.700;8.760;2023-02-11T00:43:43;42.40;;;27.70;;
70946;SDS011;58605;48.700;8.760;2023-02-11T00:46:09;38.27;;;25.40;;
70946;SDS011;58605;48.700;8.760;2023-02-11T00:48:36;44.67;;;26.53;;
70946;SDS011;58605;48.700;8.760;2023-02-11T00:51:03;47.80;;;28.47;;
70946;SDS011;58605;48.700;8.760;2023-02-11T00:53:29;40.90;;;24.63;;
70946;SDS011;58605;48.700;8.760;2023-02-11T00:55:57;43.07;;;27.00;;
70946;SDS011;58605;48.700;8.760;2023-02-11T00:58:25;38.67;;;24.77;;
70946;SDS011;58605;48.700;8.760;2023-02-11T01:00:51;39.93;;;25.97;;
70946;SDS011;58605;48.700;8.760;2023-02-11T01:03:18;41.90;;;27.43;;
70946;SDS011;58605;48.700;8.760;2023-02-11T01:05:44;43.00;;;27.07;;
70946;SDS011;58605;48.700;8.760;2023-02-11T01:08:10;44.73;;;27.70;;
70946;SDS011;58605;48.700;8.760;2023-02-11T01:10:36;41.43;;;25.67;;
70946;SDS011;58605;48.700;8.760;2023-02-11T01:13:04;42.33;;;26.10;;
70946;SDS011;58605;48.700;8.760;2023-02-11T01:15:31;46.23;;;27.90;;
70946;SDS011;58605;48.700;8.760;2023-02-11T01:17:57;41.40;;;26.73;;
70946;SDS011;58605;48.700;8.760;2023-02-11T01:20:24;47.27;;;27.97;;
70946;SDS011;58605;48.700;8.760;2023-02-11T01:22:52;37.77;;;25.33;;
70946;SDS011;58605;48.700;8.760;2023-02-11T01:25:25;39.97;;;25.70;;
70946;SDS011;58605;48.700;8.760;2023-02-11T01:27:51;44.63;;;27.67;;
70946;SDS011;58605;48.700;8.760;2023-02-11T01:30:19;42.87;;;27.73;;
70946;SDS011;58605;48.700;8.760;2023-02-11T01:32:45;41.97;;;26.37;;
70946;SDS011;58605;48.700;8.760;2023-02-11T01:35:11;39.13;;;26.83;;
70946;SDS011;58605;48.700;8.760;2023-02-11T01:37:37;45.23;;;27.63;;
70946;SDS011;58605;48.700;8.760;2023-02-11T01:40:04;49.60;;;27.67;;
70946;SDS011;58605;48.700;8.760;2023-02-11T01:42:35;39.13;;;26.87;;
70946;SDS011;58605;48.700;8.760;2023-02-11T01:45:03;44.40;;;25.97;;
70946;SDS011;58605;48.700;8.760;2023-02-11T01:48:19;43.03;;;26.60;;
70946;SDS011;58605;48.700;8.760;2023-02-11T01:50:49;44.00;;;27.07;;
70946;SDS011;58605;48.700;8.760;2023-02-11T01:53:20;43.20;;;27.47;;
70946;SDS011;58605;48.700;8.760;2023-02-11T01:56:05;44.37;;;27.97;;
70946;SDS011;58605;48.700;8.760;2023-02-11T01:58:59;44.83;;;27.60;;
70946;SDS011;58605;48.700;8.760;2023-02-11T02:01:58;40.83;;;26.00;;
70946;SDS011;58605;48.700;8.760;2023-02-11T02:04:33;40.13;;;25.33;;
70946;SDS011;58605;48.700;8.760;2023-02-11T02:07:07;40.30;;;25.70;;
70946;SDS011;58605;48.700;8.760;2023-02-11T02:09:36;46.97;;;27.50;;
70946;SDS011;58605;48.700;8.760;2023-02-11T02:12:04;43.93;;;25.73;;
70946;SDS011;58605;48.700;8.760;2023-02-11T02:14:30;40.17;;;24.83;;
70946;SDS011;58605;48.700;8.760;2023-02-11T02:16:58;40.73;;;26.70;;
70946;SDS011;58605;48.700;8.760;2023-02-11T02:28:57;43.93;;;26.03;;
70946;SDS011;58605;48.700;8.760;2023-02-11T02:31:50;41.53;;;25.40;;
70946;SDS011;58605;48.700;8.760;2023-02-11T02:34:28;39.87;;;24.67;;
70946;SDS011;58605;48.700;8.760;2023-02-11T02:36:59;42.10;;;26.53;;
70946;SDS011;58605;48.700;8.760;2023-02-11T02:39:30;44.53;;;28.70;;
70946;SDS011;58605;48.700;8.760;2023-02-11T02:41:59;44.93;;;25.87;;
70946;SDS011;58605;48.700;8.760;2023-02-11T02:44:26;46.73;;;27.17;;
70946;SDS011;58605;48.700;8.760;2023-02-11T02:46:53;41.90;;;26.63;;
70946;SDS011;58605;48.700;8.760;2023-02-11T02:49:19;38.87;;;24.27;;
70946;SDS011;58605;48.700;8.760;2023-02-11T02:51:54;39.93;;;25.30;;
70946;SDS011;58605;48.700;8.760;2023-02-11T02:54:47;37.47;;;24.57;;
70946;SDS011;58605;48.700;8.760;2023-02-11T02:57:37;37.20;;;24.77;;
70946;SDS011;58605;48.700;8.760;2023-02-11T03:00:14;38.57;;;25.20;;
70946;SDS011;58605;48.700;8.760;2023-02-11T03:02:56;38.27;;;25.00;;
70946;SDS011;58605;48.700;8.760;2023-02-11T03:05:30;38.47;;;23.83;;
70946;SDS011;58605;48.700;8.760;2023-02-11T03:08:07;37.23;;;24.67;;
70946;SDS011;58605;48.700;8.760;2023-02-11T03:10:37;45.33;;;26.43;;
70946;SDS011;58605;48.700;8.760;2023-02-11T03:13:07;45.40;;;28.33;;
70946;SDS011;58605;48.700;8.760;2023-02-11T03:15:42;45.87;;;27.67;;
70946;SDS011;58605;48.700;8.760;2023-02-11T03:18:10;45.03;;;27.30;;
70946;SDS011;58605;48.700;8.760;2023-02-11T03:20:39;41.87;;;26.60;;
70946;SDS011;58605;48.700;8.760;2023-02-11T03:23:11;43.13;;;27.70;;
70946;SDS011;58605;48.700;8.760;2023-02-11T03:25:42;42.47;;;28.10;;
70946;SDS011;58605;48.700;8.760;2023-02-11T03:28:14;38.93;;;23.43;;
70946;SDS011;58605;48.700;8.760;2023-02-11T03:30:46;39.53;;;26.20;;
70946;SDS011;58605;48.700;8.760;2023-02-11T03:33:21;47.27;;;26.03;;
70946;SDS011;58605;48.700;8.760;2023-02-11T03:35:52;42.03;;;24.17;;
70946;SDS011;58605;48.700;8.760;2023-02-11T03:38:22;37.13;;;23.47;;
70946;SDS011;58605;48.700;8.760;2023-02-11T03:40:52;33.67;;;23.00;;
70946;SDS011;58605;48.700;8.760;2023-02-11T03:43:21;33.77;;;22.80;;
70946;SDS011;58605;48.700;8.760;2023-02-11T03:45:50;39.00;;;23.63;;
70946;SDS011;58605;48.700;8.760;2023-02-11T03:48:20;40.90;;;26.40;;
70946;SDS011;58605;48.700;8.760;2023-02-11T03:50:50;34.90;;;23.70;;
70946;SDS011;58605;48.700;8.760;2023-02-11T03:53:18;40.30;;;24.70;;
70946;SDS011;58605;48.700;8.760;2023-02-11T03:55:47;38.57;;;24.10;;
70946;SDS011;58605;48.700;8.760;2023-02-11T03:58:15;40.53;;;25.00;;
70946;SDS011;58605;48.700;8.760;2023-02-11T04:00:42;38.67;;;25.07;;
70946;SDS011;58605;48.700;8.760;2023-02-11T04:03:08;41.53;;;24.33;;
70946;SDS011;58605;48.700;8.760;2023-02-11T04:05:35;39.27;;;23.23;;
70946;SDS011;58605;48.700;8.760;2023-02-11T04:08:01;37.23;;;23.37;;
70946;SDS011;58605;48.700;8.760;2023-02-11T04:10:27;43.77;;;23.23;;
70946;SDS011;58605;48.700;8.760;2023-02-11T04:12:55;38.77;;;22.63;;
70946;SDS011;58605;48.700;8.760;2023-02-11T04:15:21;34.57;;;22.70;;
70946;SDS011;58605;48.700;8.760;2023-02-11T04:17:47;38.73;;;24.33;;
70946;SDS011;58605;48.700;8.760;2023-02-11T04:20:13;41.87;;;24.97;;
70946;SDS011;58605;48.700;8.760;2023-02-11T04:22:39;36.43;;;22.57;;
70946;SDS011;58605;48.700;8.760;2023-02-11T04:25:05;34.40;;;21.97;;
70946;SDS011;58605;48.700;8.760;2023-02-11T04:27:33;32.97;;;21.83;;
70946;SDS011;58605;48.700;8.760;2023-02-11T04:30:01;38.03;;;23.47;;
70946;SDS011;58605;48.700;8.760;2023-02-11T04:32:27;33.67;;;22.73;;
70946;SDS011;58605;48.700;8.760;2023-02-11T04:34:53;33.07;;;22.37;;
70946;SDS011;58605;48.700;8.760;2023-02-11T04:37:19;36.30;;;23.83;;
70946;SDS011;58605;48.700;8.760;2023-02-11T04:39:45;34.60;;;22.93;;
70946;SDS011;58605;48.700;8.760;2023-02-11T04:42:11;37.83;;;24.13;;
70946;SDS011;58605;48.700;8.760;2023-02-11T04:44:37;37.77;;;23.90;;
70946;SDS011;58605;48.700;8.760;2023-02-11T04:47:04;38.00;;;23.63;;
70946;SDS011;58605;48.700;8.760;2023-02-11T04:49:30;36.63;;;23.90;;
70946;SDS011;58605;48.700;8.760;2023-02-11T04:51:56;37.27;;;23.47;;
70946;SDS011;58605;48.700;8.760;2023-02-11T04:54:22;38.27;;;24.17;;
70946;SDS011;58605;48.700;8.760;2023-02-11T04:56:48;39.33;;;23.17;;
70946;SDS011;58605;48.700;8.760;2023-02-11T04:59:15;37.10;;;23.50;;
70946;SDS011;58605;48.700;8.760;2023-02-11T05:01:41;35.00;;;22.20;;
70946;SDS011;58605;48.700;8.760;2023-02-11T05:04:09;38.93;;;24.23;;
70946;SDS011;58605;48.700;8.760;2023-02-11T05:06:35;33.70;;;22.20;;
70946;SDS011;58605;48.700;8.760;2023-02-11T05:09:02;33.13;;;21.87;;
70946;SDS011;58605;48.700;8.760;2023-02-11T05:11:28;38.20;;;22.70;;
70946;SDS011;58605;48.700;8.760;2023-02-11T05:13:54;34.23;;;22.03;;
70946;SDS011;58605;48.700;8.760;2023-02-11T05:16:20;29.73;;;21.77;;
70946;SDS011;58605;48.700;8.760;2023-02-11T05:18:46;33.77;;;22.73;;
70946;SDS011;58605;48.700;8.760;2023-02-11T05:21:14;33.07;;;21.53;;
70946;SDS011;58605;48.700;8.760;2023-02-11T05:23:42;30.17;;;20.87;;
70946;SDS011;58605;48.700;8.760;2023-02-11T05:26:09;32.50;;;22.03;;
70946;SDS011;58605;48.700;8.760;2023-02-11T05:28:38;30.53;;;20.57;;
70946;SDS011;58605;48.700;8.760;2023-02-11T05:31:05;29.73;;;19.57;;
70946;SDS011;58605;48.700;8.760;2023-02-11T05:33:31;32.80;;;20.30;;
70946;SDS011;58605;48.700;8.760;2023-02-11T05:35:57;29.27;;;19.73;;
70946;SDS011;58605;48.700;8.760;2023-02-11T05:38:26;34.20;;;21.47;;
70946;SDS011;58605;48.700;8.760;2023-02-11T05:40:52;29.77;;;20.80;;
70946;SDS011;58605;48.700;8.760;2023-02-11T05:43:18;33.97;;;20.90;;
70946;SDS011;58605;48.700;8.760;2023-02-11T05:45:44;31.73;;;21.60;;
70946;SDS011;58605;48.700;8.760;2023-02-11T05:48:10;28.47;;;20.00;;
70946;SDS011;58605;48.700;8.760;2023-02-11T05:50:36;27.83;;;20.43;;
70946;SDS011;58605;48.700;8.760;2023-02-11T05:53:03;31.20;;;20.13;;
70946;SDS011;58605;48.700;8.760;2023-02-11T05:55:31;32.30;;;20.60;;
70946;SDS011;58605;48.700;8.760;2023-02-11T05:57:57;31.20;;;20.50;;
70946;SDS011;58605;48.700;8.760;2023-02-11T06:00:24;29.40;;;20.10;;
70946;SDS011;58605;48.700;8.760;2023-02-11T06:02:50;28.77;;;19.43;;
70946;SDS011;58605;48.700;8.760;2023-02-11T06:05:16;30.73;;;18.90;;
70946;SDS011;58605;48.700;8.760;2023-02-11T06:07:42;26.17;;;18.97;;
70946;SDS011;58605;48.700;8.760;2023-02-11T06:10:09;28.13;;;19.07;;
70946;SDS011;58605;48.700;8.760;2023-02-11T06:12:36;24.60;;;17.87;;
70946;SDS011;58605;48.700;8.760;2023-02-11T06:15:03;33.50;;;20.27;;
70946;SDS011;58605;48.700;8.760;2023-02-11T06:17:29;29.63;;;20.83;;
70946;SDS011;58605;48.700;8.760;2023-02-11T06:19:57;30.60;;;20.30;;
70946;SDS011;58605;48.700;8.760;2023-02-11T06:22:24;27.90;;;20.00;;
70946;SDS011;58605;48.700;8.760;2023-02-11T06:24:50;31.47;;;19.10;;
70946;SDS011;58605;48.700;8.760;2023-02-11T06:27:16;26.07;;;18.77;;
70946;SDS011;58605;48.700;8.760;2023-02-11T06:29:44;29.10;;;19.27;;
70946;SDS011;58605;48.700;8.760;2023-02-11T06:32:12;29.40;;;18.90;;
70946;SDS011;58605;48.700;8.760;2023-02-11T06:34:38;25.57;;;17.43;;
70946;SDS011;58605;48.700;8.760;2023-02-11T06:37:04;25.53;;;17.10;;
70946;SDS011;58605;48.700;8.760;2023-02-11T06:39:30;25.40;;;16.77;;
70946;SDS011;58605;48.700;8.760;2023-02-11T06:41:56;24.30;;;16.83;;
70946;SDS011;58605;48.700;8.760;2023-02-11T06:44:22;24.40;;;17.23;;
70946;SDS011;58605;48.700;8.760;2023-02-11T06:46:50;25.47;;;18.03;;
70946;SDS011;58605;48.700;8.760;2023-02-11T06:49:16;29.77;;;18.90;;
70946;SDS011;58605;48.700;8.760;2023-02-11T06:51:42;26.17;;;16.87;;
70946;SDS011;58605;48.700;8.760;2023-02-11T06:54:08;26.90;;;17.87;;
70946;SDS011;58605;48.700;8.760;2023-02-11T06:56:37;27.93;;;17.97;;
70946;SDS011;58605;48.700;8.760;2023-02-11T06:59:04;23.87;;;17.43;;
70946;SDS011;58605;48.700;8.760;2023-02-11T07:01:30;22.87;;;17.40;;
70946;SDS011;58605;48.700;8.760;2023-02-11T07:03:58;28.23;;;18.83;;
70946;SDS011;58605;48.700;8.760;2023-02-11T07:06:24;28.27;;;17.67;;
70946;SDS011;58605;48.700;8.760;2023-02-11T07:08:52;26.97;;;19.23;;
70946;SDS011;58605;48.700;8.760;2023-02-11T07:11:20;27.17;;;18.47;;
70946;SDS011;58605;48.700;8.760;2023-02-11T07:13:51;28.67;;;19.37;;
70946;SDS011;58605;48.700;8.760;2023-02-11T07:16:19;31.03;;;18.97;;
70946;SDS011;58605;48.700;8.760;2023-02-11T07:18:45;27.77;;;19.03;;
70946;SDS011;58605;48.700;8.760;2023-02-11T07:21:17;25.70;;;18.73;;
70946;SDS011;58605;48.700;8.760;2023-02-11T07:23:44;22.93;;;17.07;;
70946;SDS011;58605;48.700;8.760;2023-02-11T07:26:11;22.47;;;16.13;;
70946;SDS011;58605;48.700;8.760;2023-02-11T07:28:39;21.90;;;16.10;;
70946;SDS011;58605;48.700;8.760;2023-02-11T07:31:06;22.80;;;16.43;;
70946;SDS011;58605;48.700;8.760;2023-02-11T07:33:32;24.93;;;17.10;;
70946;SDS011;58605;48.700;8.760;2023-02-11T07:35:59;22.80;;;16.07;;
70946;SDS011;58605;48.700;8.760;2023-02-11T07:38:26;23.23;;;16.03;;
70946;SDS011;58605;48.700;8.760;2023-02-11T07:40:53;26.13;;;16.63;;
70946;SDS011;58605;48.700;8.760;2023-02-11T07:43:18;22.70;;;16.20;;
70946;SDS011;58605;48.700;8.760;2023-02-11T07:45:44;27.80;;;17.33;;
70946;SDS011;58605;48.700;8.760;2023-02-11T07:48:10;21.23;;;14.93;;
70946;SDS011;58605;48.700;8.760;2023-02-11T07:50:36;22.27;;;16.07;;
70946;SDS011;58605;48.700;8.760;2023-02-11T07:53:02;23.30;;;16.07;;
70946;SDS011;58605;48.700;8.760;2023-02-11T07:55:30;21.70;;;15.80;;
70946;SDS011;58605;48.700;8.760;2023-02-11T07:57:57;23.80;;;16.07;;
70946;SDS011;58605;48.700;8.760;2023-02-11T08:00:23;24.63;;;16.30;;
70946;SDS011;58605;48.700;8.760;2023-02-11T08:02:49;25.40;;;17.63;;
70946;SDS011;58605;48.700;8.760;2023-02-11T08:05:15;25.97;;;17.03;;
70946;SDS011;58605;48.700;8.760;2023-02-11T08:07:41;24.10;;;16.57;;
70946;SDS011;58605;48.700;8.760;2023-02-11T08:10:07;25.20;;;17.93;;
70946;SDS011;58605;48.700;8.760;2023-02-11T08:12:35;23.50;;;16.00;;
70946;SDS011;58605;48.700;8.760;2023-02-11T08:15:01;24.10;;;16.43;;
70946;SDS011;58605;48.700;8.760;2023-02-11T08:17:27;23.17;;;17.30;;
70946;SDS011;58605;48.700;8.760;2023-02-11T08:20:00;26.33;;;18.67;;
70946;SDS011;58605;48.700;8.760;2023-02-11T08:22:26;25.37;;;18.10;;
70946;SDS011;58605;48.700;8.760;2023-02-11T08:24:55;22.00;;;17.40;;
70946;SDS011;58605;48.700;8.760;2023-02-11T08:27:22;24.57;;;17.03;;
70946;SDS011;58605;48.700;8.760;2023-02-11T08:29:51;22.23;;;16.70;;
70946;SDS011;58605;48.700;8.760;2023-02-11T08:32:17;23.93;;;17.40;;
70946;SDS011;58605;48.700;8.760;2023-02-11T08:34:43;27.40;;;16.53;;
70946;SDS011;58605;48.700;8.760;2023-02-11T08:37:09;25.73;;;17.93;;
70946;SDS011;58605;48.700;8.760;2023-02-11T08:39:35;22.77;;;15.63;;
70946;SDS011;58605;48.700;8.760;2023-02-11T08:42:02;22.63;;;16.40;;
70946;SDS011;58605;48.700;8.760;2023-02-11T08:44:28;21.60;;;16.17;;
70946;SDS011;58605;48.700;8.760;2023-02-11T08:46:55;20.73;;;15.43;;
70946;SDS011;58605;48.700;8.760;2023-02-11T08:49:21;20.87;;;15.47;;
70946;SDS011;58605;48.700;8.760;2023-02-11T08:51:48;18.67;;;14.67;;
70946;SDS011;58605;48.700;8.760;2023-02-11T08:54:14;18.97;;;14.20;;
70946;SDS011;58605;48.700;8.760;2023-02-11T08:56:40;17.90;;;13.87;;
70946;SDS011;58605;48.700;8.760;2023-02-11T08:59:07;18.63;;;13.80;;
70946;SDS011;58605;48.700;8.760;2023-02-11T09:01:39;19.40;;;14.37;;
70946;SDS011;58605;48.700;8.760;2023-02-11T09:04:13;20.67;;;14.63;;
70946;SDS011;58605;48.700;8.760;2023-02-11T09:06:39;19.13;;;14.43;;
70946;SDS011;58605;48.700;8.760;2023-02-11T09:09:05;16.50;;;13.00;;
70946;SDS011;58605;48.700;8.760;2023-02-11T09:11:35;20.47;;;14.50;;
70946;SDS011;58605;48.700;8.760;2023-02-11T09:14:01;19.67;;;14.00;;
70946;SDS011;58605;48.700;8.760;2023-02-11T09:16:29;18.20;;;13.50;;
70946;SDS011;58605;48.700;8.760;2023-02-11T09:18:57;19.80;;;13.83;;
70946;SDS011;58605;48.700;8.760;2023-02-11T09:21:25;19.10;;;13.63;;
70946;SDS011;58605;48.700;8.760;2023-02-11T09:23:52;18.93;;;14.17;;
70946;SDS011;58605;48.700;8.760;2023-02-11T09:26:19;18.83;;;13.10;;
70946;SDS011;58605;48.700;8.760;2023-02-11T09:28:47;20.37;;;14.17;;
70946;SDS011;58605;48.700;8.760;2023-02-11T09:31:14;17.07;;;13.00;;
70946;SDS011;58605;48.700;8.760;2023-02-11T09:33:41;19.47;;;13.60;;
70946;SDS011;58605;48.700;8.760;2023-02-11T09:36:12;17.03;;;12.63;;
70946;SDS011;58605;48.700;8.760;2023-02-11T09:38:41;17.90;;;13.83;;
70946;SDS011;58605;48.700;8.760;2023-02-11T09:41:13;19.37;;;13.20;;
70946;SDS011;58605;48.700;8.760;2023-02-11T09:43:52;18.20;;;13.27;;
70946;SDS011;58605;48.700;8.760;2023-02-11T09:46:19;17.20;;;12.87;;
70946;SDS011;58605;48.700;8.760;2023-02-11T09:48:47;16.60;;;12.97;;
70946;SDS011;58605;48.700;8.760;2023-02-11T09:51:18;15.33;;;13.00;;
70946;SDS011;58605;48.700;8.760;2023-02-11T09:53:50;17.67;;;11.47;;
70946;SDS011;58605;48.700;8.760;2023-02-11T09:56:27;15.37;;;11.97;;
70946;SDS011;58605;48.700;8.760;2023-02-11T09:58:53;16.43;;;12.27;;
70946;SDS011;58605;48.700;8.760;2023-02-11T10:01:20;20.13;;;12.47;;
70946;SDS011;58605;48.700;8.760;2023-02-11T10:04:04;17.17;;;11.17;;
70946;SDS011;58605;48.700;8.760;2023-02-11T10:06:40;15.60;;;11.77;;
70946;SDS011;58605;48.700;8.760;2023-02-11T10:09:14;15.20;;;11.57;;
70946;SDS011;58605;48.700;8.760;2023-02-11T10:11:59;17.87;;;12.03;;
70946;SDS011;58605;48.700;8.760;2023-02-11T10:14:46;16.17;;;11.40;;
70946;SDS011;58605;48.700;8.760;2023-02-11T10:17:34;17.53;;;11.53;;
70946;SDS011;58605;48.700;8.760;2023-02-11T10:20:10;18.13;;;11.37;;
70946;SDS011;58605;48.700;8.760;2023-02-11T10:22:47;12.63;;;10.37;;
70946;SDS011;58605;48.700;8.760;2023-02-11T10:25:19;12.70;;;10.57;;
70946;SDS011;58605;48.700;8.760;2023-02-11T10:27:48;13.20;;;9.93;;
70946;SDS011;58605;48.700;8.760;2023-02-11T10:30:18;16.03;;;10.93;;
70946;SDS011;58605;48.700;8.760;2023-02-11T10:32:51;14.07;;;10.83;;
70946;SDS011;58605;48.700;8.760;2023-02-11T10:35:22;14.17;;;11.10;;
70946;SDS011;58605;48.700;8.760;2023-02-11T10:37:48;16.90;;;10.83;;
70946;SDS011;58605;48.700;8.760;2023-02-11T10:40:14;14.57;;;9.93;;
70946;SDS011;58605;48.700;8.760;2023-02-11T10:42:44;12.97;;;9.50;;
70946;SDS011;58605;48.700;8.760;2023-02-11T10:45:15;11.90;;;9.30;;
70946;SDS011;58605;48.700;8.760;2023-02-11T10:47:46;13.80;;;9.73;;
70946;SDS011;58605;48.700;8.760;2023-02-11T10:50:20;12.90;;;8.83;;
70946;SDS011;58605;48.700;8.760;2023-02-11T10:52:48;13.20;;;8.80;;
70946;SDS011;58605;48.700;8.760;2023-02-11T10:55:14;11.33;;;9.23;;
70946;SDS011;58605;48.700;8.760;2023-02-11T10:57:41;11.77;;;9.13;;
70946;SDS011;58605;48.700;8.760;2023-02-11T11:00:22;10.63;;;8.33;;
70946;SDS011;58605;48.700;8.760;2023-02-11T11:02:57;9.57;;;7.90;;
70946;SDS011;58605;48.700;8.760;2023-02-11T11:05:27;9.43;;;8.20;;
70946;SDS011;58605;48.700;8.760;2023-02-11T11:07:56;9.77;;;7.67;;
70946;SDS011;58605;48.700;8.760;2023-02-11T11:10:26;11.03;;;8.10;;
70946;SDS011;58605;48.700;8.760;2023-02-11T11:12:55;10.30;;;7.97;;
70946;SDS011;58605;48.700;8.760;2023-02-11T11:15:22;10.90;;;7.70;;
70946;SDS011;58605;48.700;8.760;2023-02-11T11:18:01;8.37;;;6.90;;
70946;SDS011;58605;48.700;8.760;2023-02-11T11:20:34;9.43;;;7.40;;
70946;SDS011;58605;48.700;8.760;2023-02-11T11:23:08;9.57;;;7.77;;
70946;SDS011;58605;48.700;8.760;2023-02-11T11:25:40;11.63;;;7.57;;
70946;SDS011;58605;48.700;8.760;2023-02-11T11:28:16;8.27;;;7.27;;
70946;SDS011;58605;48.700;8.760;2023-02-11T11:30:45;9.03;;;6.53;;
70946;SDS011;58605;48.700;8.760;2023-02-11T11:33:15;10.40;;;7.00;;
70946;SDS011;58605;48.700;8.760;2023-02-11T11:35:51;8.57;;;6.47;;
70946;SDS011;58605;48.700;8.760;2023-02-11T11:38:21;8.50;;;6.73;;
70946;SDS011;58605;48.700;8.760;2023-02-11T11:40:49;10.30;;;6.53;;
70946;SDS011;58605;48.700;8.760;2023-02-11T11:43:41;6.87;;;6.00;;
70946;SDS011;58605;48.700;8.760;2023-02-11T11:46:22;8.47;;;5.90;;
70946;SDS011;58605;48.700;8.760;2023-02-11T11:48:50;7.40;;;6.30;;
70946;SDS011;58605;48.700;8.760;2023-02-11T11:51:23;7.80;;;6.07;;
70946;SDS011;58605;48.700;8.760;2023-02-11T11:53:50;12.27;;;7.27;;
70946;SDS011;58605;48.700;8.760;2023-02-11T11:56:22;9.93;;;6.57;;
70946;SDS011;58605;48.700;8.760;2023-02-11T11:58:51;7.27;;;6.57;;
70946;SDS011;58605;48.700;8.760;2023-02-11T12:01:20;8.13;;;7.03;;
70946;SDS011;58605;48.700;8.760;2023-02-11T12:07:10;8.23;;;5.93;;
70946;SDS011;58605;48.700;8.760;2023-02-11T12:09:47;9.27;;;6.63;;
70946;SDS011;58605;48.700;8.760;2023-02-11T12:12:28;7.80;;;6.73;;
70946;SDS011;58605;48.700;8.760;2023-02-11T12:15:07;7.87;;;6.07;;
70946;SDS011;58605;48.700;8.760;2023-02-11T12:17:51;8.27;;;6.13;;
70946;SDS011;58605;48.700;8.760;2023-02-11T12:20:28;7.03;;;6.27;;
70946;SDS011;58605;48.700;8.760;2023-02-11T12:23:04;8.83;;;6.33;;
70946;SDS011;58605;48.700;8.760;2023-02-11T12:25:55;7.67;;;6.40;;
70946;SDS011;58605;48.700;8.760;2023-02-11T12:28:30;8.33;;;6.73;;
70946;SDS011;58605;48.700;8.760;2023-02-11T12:31:09;7.57;;;6.43;;
70946;SDS011;58605;48.700;8.760;2023-02-11T12:36:52;8.40;;;7.13;;
70946;SDS011;58605;48.700;8.760;2023-02-11T12:39:31;9.20;;;6.47;;
70946;SDS011;58605;48.700;8.760;2023-02-11T12:42:17;8.80;;;7.90;;
70946;SDS011;58605;48.700;8.760;2023-02-11T12:45:17;9.43;;;7.33;;
70946;SDS011;58605;48.700;8.760;2023-02-11T12:47:58;8.93;;;7.00;;
70946;SDS011;58605;48.700;8.760;2023-02-11T12:50:33;9.90;;;7.47;;
70946;SDS011;58605;48.700;8.760;2023-02-11T12:53:16;8.93;;;7.20;;
70946;SDS011;58605;48.700;8.760;2023-02-11T12:55:53;9.93;;;7.40;;
70946;SDS011;58605;48.700;8.760;2023-02-11T12:58:23;8.90;;;7.20;;
70946;SDS011;58605;48.700;8.760;2023-02-11T13:00:54;9.70;;;7.37;;
70946;SDS011;58605;48.700;8.760;2023-02-11T13:03:24;8.33;;;7.47;;
70946;SDS011;58605;48.700;8.760;2023-02-11T13:05:57;8.60;;;7.57;;
70946;SDS011;58605;48.700;8.760;2023-02-11T13:08:29;8.40;;;7.13;;
70946;SDS011;58605;48.700;8.760;2023-02-11T13:10:57;10.00;;;7.50;;
70946;SDS011;58605;48.700;8.760;2023-02-11T13:13:27;9.33;;;8.30;;
70946;SDS011;58605;48.700;8.760;2023-02-11T13:15:58;10.90;;;7.97;;
70946;SDS011;58605;48.700;8.760;2023-02-11T13:18:43;9.33;;;7.20;;
70946;SDS011;58605;48.700;8.760;2023-02-11T13:24:06;7.87;;;7.00;;
70946;SDS011;58605;48.700;8.760;2023-02-11T13:26:40;9.17;;;7.77;;
70946;SDS011;58605;48.700;8.760;2023-02-11T13:32:05;10.47;;;7.60;;
70946;SDS011;58605;48.700;8.760;2023-02-11T13:37:21;12.10;;;9.00;;
70946;SDS011;58605;48.700;8.760;2023-02-11T13:39:54;11.40;;;8.23;;
70946;SDS011;58605;48.700;8.760;2023-02-11T13:42:22;11.50;;;7.63;;
70946;SDS011;58605;48.700;8.760;2023-02-11T13:44:48;10.67;;;9.03;;
70946;SDS011;58605;48.700;8.760;2023-02-11T13:47:20;13.40;;;8.80;;
70946;SDS011;58605;48.700;8.760;2023-02-11T13:49:56;12.93;;;9.20;;
70946;SDS011;58605;48.700;8.760;2023-02-11T13:52:24;13.83;;;9.57;;
70946;SDS011;58605;48.700;8.760;2023-02-11T13:54:53;13.80;;;10.60;;
70946;SDS011;58605;48.700;8.760;2023-02-11T13:57:30;15.33;;;10.60;;
70946;SDS011;58605;48.700;8.760;2023-02-11T13:59:58;12.93;;;9.70;;
70946;SDS011;58605;48.700;8.760;2023-02-11T14:02:27;17.93;;;12.27;;
70946;SDS011;58605;48.700;8.760;2023-02-11T14:05:29;16.20;;;10.77;;
70946;SDS011;58605;48.700;8.760;2023-02-11T14:08:19;19.70;;;12.17;;
70946;SDS011;58605;48.700;8.760;2023-02-11T14:11:06;15.77;;;10.07;;
70946;SDS011;58605;48.700;8.760;2023-02-11T14:16:49;18.60;;;11.33;;
70946;SDS011;58605;48.700;8.760;2023-02-11T14:19:45;16.47;;;10.93;;
70946;SDS011;58605;48.700;8.760;2023-02-11T14:22:14;18.87;;;11.60;;
70946;SDS011;58605;48.700;8.760;2023-02-11T14:24:47;15.20;;;11.67;;
70946;SDS011;58605;48.700;8.760;2023-02-11T14:27:17;17.83;;;12.07;;
70946;SDS011;58605;48.700;8.760;2023-02-11T14:29:52;17.40;;;11.27;;
70946;SDS011;58605;48.700;8.760;2023-02-11T14:32:37;18.40;;;11.97;;
70946;SDS011;58605;48.700;8.760;2023-02-11T14:35:14;19.90;;;11.87;;
70946;SDS011;58605;48.700;8.760;2023-02-11T14:37:50;18.00;;;12.27;;
70946;SDS011;58605;48.700;8.760;2023-02-11T14:40:26;19.70;;;13.60;;
70946;SDS011;58605;48.700;8.760;2023-02-11T14:42:56;17.87;;;11.00;;
70946;SDS011;58605;48.700;8.760;2023-02-11T14:45:30;20.60;;;12.83;;
70946;SDS011;58605;48.700;8.760;2023-02-11T14:48:01;18.07;;;12.10;;
70946;SDS011;58605;48.700;8.760;2023-02-11T14:50:32;18.07;;;11.70;;
70946;SDS011;58605;48.700;8.760;2023-02-11T14:53:06;20.17;;;12.47;;
70946;SDS011;58605;48.700;8.760;2023-02-11T14:55:38;18.17;;;13.37;;
70946;SDS011;58605;48.700;8.760;2023-02-11T14:58:10;18.23;;;12.20;;
70946;SDS011;58605;48.700;8.760;2023-02-11T15:00:46;17.93;;;11.90;;
70946;SDS011;58605;48.700;8.760;2023-02-11T15:03:23;19.97;;;13.17;;
70946;SDS011;58605;48.700;8.760;2023-02-11T15:05:57;17.07;;;12.00;;
70946;SDS011;58605;48.700;8.760;2023-02-11T15:08:27;18.37;;;12.33;;
70946;SDS011;58605;48.700;8.760;2023-02-11T15:10:54;20.37;;;13.10;;
70946;SDS011;58605;48.700;8.760;2023-02-11T15:13:22;18.07;;;12.17;;